Time;durP1;ratioP1;P1;durP2;ratioP2;P2;SDS_P1;SDS_P2;PMS_P1;PMS_P2;Temp;Humidity;BMP_temperature;BMP_pressure;BME280_temperature;BME280_humidity;BME280_pressure;Samples;Min_cycle;Max_cycle;Signal;HPM_P1;HPM_P2
2022/03/09 00:00:59;;;;;;;20.27;7.32;;;0.30;47.10;;;;;;5027386;28;20025;-62
2022/03/09 00:03:25;;;;;;;15.23;6.75;;;0.20;47.10;;;;;;5047392;28;20022;-62
2022/03/09 00:05:51;;;;;;;13.43;6.70;;;0.20;47.20;;;;;;5027515;28;20029;-62
2022/03/09 00:08:16;;;;;;;14.75;7.65;;;0.20;47.20;;;;;;5028454;28;20021;-62
2022/03/09 00:10:42;;;;;;;15.35;7.22;;;0.20;47.30;;;;;;5044618;28;20042;-63
2022/03/09 00:13:07;;;;;;;15.70;7.18;;;0.20;47.40;;;;;;5046708;28;20037;-62
2022/03/09 00:15:33;;;;;;;16.88;7.22;;;0.10;47.50;;;;;;5045361;28;20049;-62
2022/03/09 00:17:59;;;;;;;14.77;7.68;;;0.10;47.60;;;;;;5046540;28;20025;-62
2022/03/09 00:20:25;;;;;;;15.23;6.55;;;0.10;47.50;;;;;;5046514;28;20033;-63
2022/03/09 00:22:50;;;;;;;14.57;7.60;;;0.10;47.50;;;;;;5045639;28;20116;-64
2022/03/09 00:25:16;;;;;;;16.63;7.10;;;0.10;47.60;;;;;;5046014;28;20723;-64
2022/03/09 00:27:42;;;;;;;18.00;7.45;;;0.00;47.70;;;;;;5045112;28;20073;-62
2022/03/09 00:30:08;;;;;;;13.30;7.13;;;0.00;47.70;;;;;;5028604;28;20550;-62
2022/03/09 00:32:38;;;;;;;13.68;6.80;;;0.00;47.80;;;;;;5045158;28;20477;-62
2022/03/09 00:35:04;;;;;;;20.58;7.78;;;0.20;48.10;;;;;;5043483;28;20049;-63
2022/03/09 00:37:30;;;;;;;16.27;7.55;;;-0.10;47.80;;;;;;5044731;28;20025;-62
2022/03/09 00:39:56;;;;;;;17.65;7.43;;;-0.10;47.90;;;;;;5039791;28;20040;-62
2022/03/09 00:42:21;;;;;;;17.25;7.90;;;-0.10;47.90;;;;;;5045879;28;20109;-62
2022/03/09 00:44:47;;;;;;;19.23;7.30;;;-0.10;47.90;;;;;;5026243;28;20136;-62
2022/03/09 00:47:13;;;;;;;14.57;6.97;;;-0.10;47.90;;;;;;5045581;28;20068;-62
2022/03/09 00:49:38;;;;;;;13.80;7.32;;;-0.10;47.90;;;;;;5044957;28;20025;-62
2022/03/09 00:52:04;;;;;;;13.27;7.13;;;-0.20;47.90;;;;;;5046599;28;20109;-62
2022/03/09 00:54:30;;;;;;;13.90;7.15;;;-0.20;47.90;;;;;;5044337;28;20037;-63
2022/03/09 00:56:55;;;;;;;11.77;6.15;;;0.00;48.10;;;;;;5046290;28;20033;-62
2022/03/09 00:59:21;;;;;;;14.40;5.80;;;-0.20;48.20;;;;;;5023240;28;20125;-62
2022/03/09 01:01:47;;;;;;;13.73;6.93;;;-0.20;48.00;;;;;;5046344;28;20025;-64
2022/03/09 01:04:12;;;;;;;10.73;6.25;;;-0.30;48.00;;;;;;5044114;28;20044;-64
2022/03/09 01:06:38;;;;;;;15.38;6.88;;;-0.30;48.00;;;;;;5046421;28;20053;-62
2022/03/09 01:09:03;;;;;;;14.95;7.75;;;-0.40;48.00;;;;;;5044404;28;20021;-61
2022/03/09 01:11:29;;;;;;;17.42;7.03;;;-0.40;48.10;;;;;;5045178;28;20021;-62
2022/03/09 01:13:55;;;;;;;18.70;6.78;;;-0.40;48.30;;;;;;5011420;28;20058;-62
2022/03/09 01:16:21;;;;;;;16.23;6.72;;;-0.30;48.60;;;;;;5003641;28;20038;-62
2022/03/09 01:18:46;;;;;;;18.90;6.60;;;-0.50;48.60;;;;;;5005215;28;20041;-63
2022/03/09 01:21:12;;;;;;;13.77;7.00;;;-0.50;48.70;;;;;;5004609;28;20058;-63
2022/03/09 01:23:37;;;;;;;15.82;6.47;;;-0.50;48.60;;;;;;5004085;28;20497;-62
2022/03/09 01:26:03;;;;;;;13.32;6.43;;;-0.50;48.60;;;;;;5005619;28;20575;-62
2022/03/09 01:28:29;;;;;;;15.70;7.25;;;-0.50;48.60;;;;;;5006346;28;20117;-64
2022/03/09 01:30:54;;;;;;;15.70;6.78;;;-0.50;48.50;;;;;;5004025;28;20493;-64
2022/03/09 01:33:20;;;;;;;12.40;6.20;;;-0.50;48.60;;;;;;5005212;28;20027;-64
2022/03/09 01:35:46;;;;;;;13.50;6.88;;;-0.60;48.50;;;;;;5004377;28;20042;-64
2022/03/09 01:38:12;;;;;;;10.30;6.00;;;-0.60;48.60;;;;;;5003765;28;20022;-63
2022/03/09 01:40:38;;;;;;;14.00;6.10;;;-0.60;48.70;;;;;;5003227;28;20038;-62
2022/03/09 01:43:03;;;;;;;13.57;6.07;;;-0.60;48.70;;;;;;5005837;28;20094;-65
2022/03/09 01:45:29;;;;;;;11.57;6.72;;;-0.70;48.90;;;;;;5003036;28;20022;-63
2022/03/09 01:47:54;;;;;;;16.02;6.28;;;-0.70;48.90;;;;;;5005058;28;20030;-64
2022/03/09 01:50:20;;;;;;;14.70;6.43;;;-0.80;48.90;;;;;;5004152;28;20036;-62
2022/03/09 01:52:46;;;;;;;11.70;6.90;;;-0.80;49.20;;;;;;5003376;28;20022;-62
2022/03/09 01:55:12;;;;;;;21.27;7.53;;;-0.80;49.10;;;;;;5004328;28;20045;-62
2022/03/09 01:57:40;;;;;;;11.20;6.32;;;-0.80;49.20;;;;;;5005941;28;20022;-62
2022/03/09 02:00:06;;;;;;;15.27;6.55;;;-0.90;49.00;;;;;;5004335;28;20053;-62
2022/03/09 02:02:32;;;;;;;12.02;6.70;;;-0.90;49.00;;;;;;5005367;28;20571;-63
2022/03/09 02:04:58;;;;;;;13.30;7.10;;;-0.90;49.00;;;;;;5004290;28;20018;-62
2022/03/09 02:09:41;;;;;;;12.38;7.03;;;-0.90;49.10;;;;;;5003847;28;20038;-62
2022/03/09 02:10:10;;;;;;;14.05;7.13;;;-0.90;49.10;;;;;;5000759;28;20423;-63
2022/03/09 02:12:36;;;;;;;14.70;7.35;;;-0.90;49.00;;;;;;5010820;28;20053;-64
2022/03/09 02:15:03;;;;;;;15.40;7.70;;;-0.90;49.00;;;;;;5043887;28;20088;-63
2022/03/09 02:17:29;;;;;;;13.43;6.80;;;-1.00;49.10;;;;;;5044524;28;20048;-63
2022/03/09 02:19:58;;;;;;;18.50;7.10;;;-1.00;49.20;;;;;;5024850;28;20029;-64
2022/03/09 02:22:35;;;;;;;16.33;7.20;;;-1.00;49.10;;;;;;5045660;28;20030;-63
2022/03/09 02:25:03;;;;;;;15.25;7.10;;;-1.00;49.50;;;;;;5031615;28;20029;-64
2022/03/09 02:27:29;;;;;;;13.85;6.50;;;-1.00;49.20;;;;;;5026596;28;20026;-63
2022/03/09 02:29:55;;;;;;;13.45;7.72;;;-1.00;49.10;;;;;;5043654;28;20017;-64
2022/03/09 02:32:22;;;;;;;11.27;6.07;;;-1.10;49.20;;;;;;5044516;28;20037;-63
2022/03/09 02:34:48;;;;;;;16.60;6.95;;;-1.10;49.20;;;;;;5025049;28;20040;-63
2022/03/09 02:37:14;;;;;;;14.82;7.70;;;-1.10;49.30;;;;;;5044433;28;20045;-62
2022/03/09 02:39:40;;;;;;;18.45;6.75;;;-1.10;49.20;;;;;;5025012;28;20037;-63
2022/03/09 02:42:06;;;;;;;12.65;6.72;;;-1.10;49.20;;;;;;5014994;28;20035;-63
2022/03/09 02:44:32;;;;;;;11.77;6.72;;;-1.10;49.30;;;;;;5039766;28;20033;-62
2022/03/09 02:47:03;;;;;;;14.27;6.18;;;-1.10;49.20;;;;;;5042813;28;20123;-65
2022/03/09 02:49:30;;;;;;;12.05;6.25;;;-1.20;49.20;;;;;;5041568;28;20056;-64
2022/03/09 02:51:56;;;;;;;14.90;6.88;;;-1.00;49.20;;;;;;5028116;28;20167;-64
2022/03/09 02:54:21;;;;;;;13.27;6.53;;;-1.20;49.30;;;;;;5025584;28;20076;-62
2022/03/09 02:56:47;;;;;;;13.63;6.55;;;-1.30;49.30;;;;;;5044202;28;20033;-62
2022/03/09 02:59:13;;;;;;;11.13;6.43;;;-1.30;49.40;;;;;;5042626;28;20052;-62
2022/03/09 03:01:39;;;;;;;17.92;7.70;;;-1.30;49.40;;;;;;5027005;28;20040;-61
2022/03/09 03:04:05;;;;;;;13.20;6.32;;;-1.30;49.70;;;;;;5040780;28;20055;-64
2022/03/09 03:06:30;;;;;;;18.10;6.05;;;-1.30;49.70;;;;;;5041072;28;20037;-64
2022/03/09 03:08:56;;;;;;;13.13;6.53;;;-1.30;49.70;;;;;;5025249;28;20467;-64
2022/03/09 03:11:22;;;;;;;15.25;6.53;;;-1.40;49.70;;;;;;5039409;28;20443;-64
2022/03/09 03:13:49;;;;;;;12.25;6.93;;;-1.30;49.70;;;;;;5041936;28;20050;-63
2022/03/09 03:16:15;;;;;;;12.00;6.28;;;-1.30;49.70;;;;;;5043888;28;20033;-62
2022/03/09 03:18:41;;;;;;;14.32;6.38;;;-1.30;49.60;;;;;;5040746;28;20033;-64
2022/03/09 03:21:07;;;;;;;14.52;6.72;;;-1.40;49.50;;;;;;5043852;28;20594;-64
2022/03/09 03:23:34;;;;;;;13.15;6.70;;;-1.40;50.00;;;;;;5039668;28;20033;-64
2022/03/09 03:26:00;;;;;;;10.82;6.53;;;-1.40;49.70;;;;;;5041450;28;20025;-62
2022/03/09 03:28:26;;;;;;;19.48;6.80;;;-1.40;49.80;;;;;;5040071;28;20030;-63
2022/03/09 03:30:52;;;;;;;10.02;6.32;;;-1.40;49.80;;;;;;5040616;28;20044;-64
2022/03/09 03:33:19;;;;;;;15.15;6.43;;;-1.50;49.80;;;;;;5048389;28;20033;-65
2022/03/09 03:35:46;;;;;;;11.95;6.65;;;-1.50;49.80;;;;;;5045951;28;20052;-62
2022/03/09 03:38:12;;;;;;;10.15;5.95;;;-1.50;49.80;;;;;;5044114;28;20021;-62
2022/03/09 03:40:38;;;;;;;12.45;6.68;;;-1.60;49.80;;;;;;5048281;28;20045;-62
2022/03/09 03:43:05;;;;;;;13.68;6.78;;;-1.50;50.00;;;;;;5047586;28;20029;-62
2022/03/09 03:45:30;;;;;;;14.07;7.05;;;-1.60;49.90;;;;;;5045951;28;20033;-63
2022/03/09 03:47:56;;;;;;;12.18;6.38;;;-1.60;50.10;;;;;;5047698;28;20029;-63
2022/03/09 03:50:22;;;;;;;14.02;6.82;;;-1.60;50.20;;;;;;5046684;28;20034;-62
2022/03/09 03:52:47;;;;;;;12.80;6.70;;;-1.60;50.20;;;;;;5048145;28;20025;-64
2022/03/09 03:55:13;;;;;;;14.50;6.82;;;-1.70;50.20;;;;;;5046703;28;20037;-64
2022/03/09 03:57:39;;;;;;;14.07;6.60;;;-1.60;50.30;;;;;;5047700;28;20059;-64
2022/03/09 04:00:06;;;;;;;13.25;6.28;;;-1.70;50.30;;;;;;5046597;28;20032;-63
2022/03/09 04:02:31;;;;;;;11.35;6.30;;;-1.70;50.20;;;;;;5047832;28;20132;-63
2022/03/09 04:04:57;;;;;;;11.40;6.30;;;-1.70;50.10;;;;;;5046773;28;20029;-63
2022/03/09 04:07:23;;;;;;;10.52;5.97;;;-1.70;50.20;;;;;;5047530;28;20037;-64
2022/03/09 04:09:49;;;;;;;15.00;7.18;;;-1.70;50.20;;;;;;5033043;28;20030;-64
2022/03/09 04:12:15;;;;;;;17.73;6.65;;;-1.70;50.20;;;;;;5046691;28;20582;-64
2022/03/09 04:14:41;;;;;;;12.20;6.43;;;-1.70;50.30;;;;;;5046126;28;20050;-64
2022/03/09 04:17:06;;;;;;;14.50;6.65;;;-1.70;50.30;;;;;;5043397;28;20022;-63
2022/03/09 04:19:32;;;;;;;12.27;5.90;;;-1.70;50.20;;;;;;5025745;28;20065;-64
2022/03/09 04:21:58;;;;;;;13.07;5.75;;;-1.70;50.30;;;;;;5037661;28;20034;-62
2022/03/09 04:24:23;;;;;;;11.90;6.22;;;-1.80;50.20;;;;;;5046546;28;20025;-62
2022/03/09 04:26:49;;;;;;;10.75;6.25;;;-1.80;50.10;;;;;;5028279;28;20049;-62
2022/03/09 04:29:15;;;;;;;13.57;6.05;;;-1.80;50.20;;;;;;5047242;28;20047;-62
2022/03/09 04:31:40;;;;;;;12.93;6.40;;;-1.80;50.10;;;;;;5046009;28;20442;-62
2022/03/09 04:34:06;;;;;;;15.80;7.57;;;-1.80;50.00;;;;;;5047150;28;20037;-62
2022/03/09 04:36:32;;;;;;;14.48;6.32;;;-1.90;50.10;;;;;;5045865;28;20034;-62
2022/03/09 04:38:58;;;;;;;12.85;6.47;;;-1.90;50.40;;;;;;5047078;28;20084;-62
2022/03/09 04:41:24;;;;;;;12.68;6.82;;;-1.90;50.50;;;;;;5045748;28;20025;-62
2022/03/09 04:43:50;;;;;;;13.98;6.78;;;-1.90;50.70;;;;;;5046797;28;20059;-62
2022/03/09 04:46:16;;;;;;;11.60;6.03;;;-1.90;50.80;;;;;;5044933;28;20049;-62
2022/03/09 04:48:43;;;;;;;11.02;6.25;;;-2.00;50.90;;;;;;5046990;28;20026;-64
2022/03/09 04:51:09;;;;;;;18.73;6.32;;;-2.00;51.00;;;;;;5045918;28;20036;-64
2022/03/09 04:53:35;;;;;;;14.60;6.07;;;-2.00;51.20;;;;;;5046480;28;20048;-62
2022/03/09 04:56:01;;;;;;;11.88;6.57;;;-2.00;51.20;;;;;;5045328;28;20145;-62
2022/03/09 04:58:27;;;;;;;10.40;6.32;;;-2.00;51.20;;;;;;5047031;28;20107;-62
2022/03/09 05:00:52;;;;;;;11.35;6.30;;;-2.00;51.10;;;;;;5028680;28;20067;-62
2022/03/09 05:03:18;;;;;;;15.00;6.72;;;-2.00;50.90;;;;;;5045470;28;20025;-61
2022/03/09 05:05:44;;;;;;;11.75;6.50;;;-2.10;50.90;;;;;;5046557;28;20395;-62
2022/03/09 05:08:10;;;;;;;13.93;7.07;;;-2.10;50.80;;;;;;5045401;28;20017;-62
2022/03/09 05:10:36;;;;;;;12.70;6.13;;;-2.10;51.00;;;;;;5046302;28;20038;-63
2022/03/09 05:13:03;;;;;;;12.05;6.80;;;-2.10;51.10;;;;;;5045153;28;20040;-62
2022/03/09 05:15:28;;;;;;;11.27;6.30;;;-2.10;51.10;;;;;;5046495;28;20041;-63
2022/03/09 05:17:54;;;;;;;9.65;6.05;;;-2.10;51.00;;;;;;5045356;28;20043;-63
2022/03/09 05:20:20;;;;;;;12.20;5.38;;;-2.10;51.10;;;;;;5028069;28;20045;-62
2022/03/09 05:22:46;;;;;;;14.85;6.65;;;-2.10;51.20;;;;;;5044867;28;20110;-63
2022/03/09 05:25:12;;;;;;;13.07;6.47;;;-2.10;51.20;;;;;;5046243;28;20041;-63
2022/03/09 05:27:38;;;;;;;11.75;6.45;;;-2.10;51.10;;;;;;5027345;28;20026;-62
2022/03/09 05:30:05;;;;;;;10.00;6.43;;;-2.10;51.20;;;;;;5027532;28;20032;-62
2022/03/09 05:32:31;;;;;;;12.77;6.18;;;-2.20;51.30;;;;;;5045328;28;20599;-63
2022/03/09 05:34:56;;;;;;;13.95;6.60;;;-2.20;51.10;;;;;;5046010;28;20041;-63
2022/03/09 05:37:22;;;;;;;14.98;7.03;;;-2.20;51.10;;;;;;5044656;28;20123;-62
2022/03/09 05:39:48;;;;;;;15.32;6.90;;;-2.20;51.00;;;;;;5045607;28;20034;-63
2022/03/09 05:42:14;;;;;;;13.73;6.45;;;-2.20;51.10;;;;;;5044745;28;20037;-63
2022/03/09 05:44:40;;;;;;;12.25;6.25;;;-2.20;51.30;;;;;;5045791;28;20087;-63
2022/03/09 05:47:06;;;;;;;14.23;6.88;;;-2.20;51.30;;;;;;5044117;28;20025;-63
2022/03/09 05:49:32;;;;;;;17.85;6.45;;;-2.20;51.40;;;;;;5027586;28;20172;-63
2022/03/09 05:51:58;;;;;;;13.48;6.40;;;-2.20;51.50;;;;;;5044639;28;20426;-62
2022/03/09 05:54:23;;;;;;;18.05;5.93;;;-2.20;51.60;;;;;;5026927;28;20041;-62
2022/03/09 05:56:50;;;;;;;12.38;6.25;;;-2.30;51.60;;;;;;5019557;28;20041;-62
2022/03/09 05:59:16;;;;;;;11.43;6.75;;;-2.20;51.50;;;;;;5044987;28;20056;-63
2022/03/09 06:01:42;;;;;;;17.08;6.78;;;-2.30;51.50;;;;;;5044614;28;20033;-63
2022/03/09 06:04:07;;;;;;;16.20;7.15;;;-2.30;51.60;;;;;;5027471;28;20044;-62
2022/03/09 06:06:33;;;;;;;16.70;7.00;;;-2.20;51.80;;;;;;5043793;28;20435;-62
2022/03/09 06:08:58;;;;;;;21.05;8.55;;;-2.20;51.80;;;;;;5045341;28;20030;-62
2022/03/09 06:11:25;;;;;;;19.27;9.50;;;-2.20;51.90;;;;;;5044160;28;20036;-63
2022/03/09 06:13:51;;;;;;;24.80;10.20;;;-2.20;52.00;;;;;;5044885;28;20069;-63
2022/03/09 06:16:17;;;;;;;22.45;9.50;;;-2.10;52.10;;;;;;5044124;28;20469;-63
2022/03/09 06:18:46;;;;;;;20.23;9.90;;;-2.10;52.00;;;;;;5045158;28;20036;-62
2022/03/09 06:21:12;;;;;;;19.50;9.75;;;-2.00;52.00;;;;;;5038250;28;20030;-62
2022/03/09 06:23:38;;;;;;;21.48;8.75;;;-2.00;51.90;;;;;;5044478;28;20030;-62
2022/03/09 06:26:05;;;;;;;17.17;8.38;;;-1.90;51.90;;;;;;5043668;28;20083;-62
2022/03/09 06:28:31;;;;;;;20.33;8.40;;;-1.90;52.10;;;;;;5045515;28;20055;-62
2022/03/09 06:30:56;;;;;;;18.45;7.90;;;-1.80;52.20;;;;;;5043614;28;20053;-62
2022/03/09 06:33:22;;;;;;;15.50;8.32;;;-1.80;52.30;;;;;;5026927;28;20052;-62
2022/03/09 06:35:48;;;;;;;15.77;8.30;;;-1.70;52.20;;;;;;5043548;28;20060;-63
2022/03/09 06:38:13;;;;;;;16.83;8.38;;;-1.60;52.30;;;;;;5045006;28;20131;-61
2022/03/09 06:40:39;;;;;;;15.98;7.88;;;-1.60;52.40;;;;;;5043655;28;20030;-64
2022/03/09 06:43:05;;;;;;;15.93;8.27;;;-1.50;52.60;;;;;;5044795;28;20080;-62
2022/03/09 06:45:31;;;;;;;20.52;9.10;;;-1.40;52.60;;;;;;5043065;28;20040;-62
2022/03/09 06:47:56;;;;;;;23.10;10.00;;;-1.30;52.60;;;;;;5026508;28;20395;-64
2022/03/09 06:50:22;;;;;;;20.15;9.43;;;-1.20;52.70;;;;;;5043174;28;20478;-62
2022/03/09 06:52:48;;;;;;;21.88;8.65;;;-1.10;52.70;;;;;;5044597;28;20087;-62
2022/03/09 06:55:13;;;;;;;19.85;8.98;;;-1.00;52.80;;;;;;5043124;28;20029;-62
2022/03/09 06:57:40;;;;;;;16.52;8.70;;;-0.90;52.80;;;;;;5044851;28;20025;-64
2022/03/09 07:00:10;;;;;;;18.27;8.40;;;-0.80;52.90;;;;;;5043330;28;20098;-63
2022/03/09 07:02:36;;;;;;;17.95;8.35;;;-0.70;52.90;;;;;;5044705;28;20055;-62
2022/03/09 07:05:01;;;;;;;18.30;8.50;;;-0.50;52.90;;;;;;5043252;28;20048;-62
2022/03/09 07:07:27;;;;;;;23.30;8.75;;;-0.40;52.90;;;;;;5029173;28;20038;-62
2022/03/09 07:09:52;;;;;;;14.48;7.93;;;-0.30;52.80;;;;;;5047789;28;20033;-62
2022/03/09 07:12:18;;;;;;;15.50;7.82;;;-0.20;52.80;;;;;;5048528;28;20038;-63
2022/03/09 07:14:44;;;;;;;15.23;7.95;;;0.00;52.80;;;;;;5047443;28;20034;-65
2022/03/09 07:17:10;;;;;;;15.40;7.90;;;0.10;52.90;;;;;;5048915;28;20032;-62
2022/03/09 07:19:36;;;;;;;12.57;6.72;;;0.30;53.00;;;;;;5046727;28;20052;-62
2022/03/09 07:22:01;;;;;;;12.15;7.00;;;0.50;53.10;;;;;;5048927;28;20029;-64
2022/03/09 07:24:27;;;;;;;23.67;8.30;;;0.60;52.90;;;;;;5029530;28;20021;-62
2022/03/09 07:26:53;;;;;;;18.05;7.40;;;0.70;52.80;;;;;;5028647;28;20026;-63
2022/03/09 07:29:20;;;;;;;14.98;7.18;;;1.10;52.70;;;;;;5047543;28;20041;-64
2022/03/09 07:31:46;;;;;;;20.60;7.45;;;1.00;52.50;;;;;;5029299;28;20025;-63
2022/03/09 07:34:11;;;;;;;14.73;7.30;;;1.40;52.60;;;;;;5048073;28;20063;-62
2022/03/09 07:36:37;;;;;;;21.77;8.45;;;1.40;52.40;;;;;;5046947;28;20040;-62
2022/03/09 07:39:03;;;;;;;18.25;8.35;;;1.60;52.40;;;;;;5047700;28;20029;-64
2022/03/09 07:41:29;;;;;;;21.42;10.00;;;1.70;52.30;;;;;;5029714;28;20076;-62
2022/03/09 07:43:54;;;;;;;22.70;9.50;;;1.90;52.10;;;;;;5047646;28;20025;-64
2022/03/09 07:46:20;;;;;;;15.32;8.38;;;2.00;51.80;;;;;;5046362;28;20389;-64
2022/03/09 07:48:46;;;;;;;15.60;8.02;;;2.20;51.50;;;;;;5047913;28;20047;-64
2022/03/09 07:51:11;;;;;;;19.20;8.57;;;2.40;51.50;;;;;;5046703;28;20057;-64
2022/03/09 07:53:42;;;;;;;18.08;8.23;;;2.60;50.90;;;;;;5047678;28;20036;-63
2022/03/09 07:56:12;;;;;;;16.67;8.98;;;2.80;50.80;;;;;;5022986;28;20116;-64
2022/03/09 07:58:37;;;;;;;21.60;9.70;;;3.00;50.20;;;;;;5047846;28;20021;-64
2022/03/09 08:01:03;;;;;;;15.07;7.82;;;3.10;50.20;;;;;;5046845;28;20029;-63
2022/03/09 08:03:29;;;;;;;20.25;8.30;;;3.30;50.30;;;;;;5047325;28;20041;-64
2022/03/09 08:05:54;;;;;;;15.88;8.50;;;3.40;50.10;;;;;;5046812;28;20022;-64
2022/03/09 08:08:20;;;;;;;18.55;8.60;;;3.60;50.00;;;;;;5029896;28;20029;-63
2022/03/09 08:10:46;;;;;;;17.30;8.18;;;3.90;50.00;;;;;;5028640;28;20083;-62
2022/03/09 08:13:11;;;;;;;16.60;8.27;;;4.00;49.90;;;;;;5047130;28;20058;-63
2022/03/09 08:15:37;;;;;;;18.63;8.45;;;4.20;49.70;;;;;;5046525;28;20041;-62
2022/03/09 08:18:04;;;;;;;11.07;7.03;;;4.40;49.60;;;;;;5047448;28;20026;-63
2022/03/09 08:20:30;;;;;;;12.98;7.13;;;4.80;49.60;;;;;;5028224;28;20029;-63
2022/03/09 08:22:55;;;;;;;13.85;8.32;;;4.70;49.20;;;;;;5029070;28;20033;-63
2022/03/09 08:25:21;;;;;;;13.68;7.90;;;4.90;49.10;;;;;;5026320;28;20025;-64
2022/03/09 08:27:46;;;;;;;13.82;8.23;;;5.10;48.90;;;;;;5046907;28;20029;-64
2022/03/09 08:30:12;;;;;;;14.00;7.93;;;5.30;48.50;;;;;;5046271;28;20463;-65
2022/03/09 08:32:38;;;;;;;11.70;7.25;;;5.50;48.40;;;;;;5029058;28;20506;-64
2022/03/09 08:35:04;;;;;;;14.90;7.00;;;5.70;48.20;;;;;;5028545;28;20060;-63
2022/03/09 08:37:30;;;;;;;14.48;7.55;;;5.80;48.60;;;;;;5047331;28;20365;-64
2022/03/09 08:39:56;;;;;;;12.13;7.32;;;6.00;47.80;;;;;;5028160;28;20032;-64
2022/03/09 08:42:21;;;;;;;15.48;6.93;;;6.20;47.50;;;;;;5028809;28;20029;-63
2022/03/09 08:44:47;;;;;;;12.95;7.13;;;6.40;47.40;;;;;;5046051;28;20017;-63
2022/03/09 08:47:13;;;;;;;13.95;7.18;;;6.50;47.20;;;;;;5046264;28;20037;-64
2022/03/09 08:49:42;;;;;;;15.95;6.78;;;6.70;47.00;;;;;;5045760;28;20037;-64
2022/03/09 08:52:10;;;;;;;18.25;7.47;;;6.80;46.80;;;;;;5046773;28;20029;-64
2022/03/09 08:54:36;;;;;;;14.48;6.88;;;7.00;46.60;;;;;;5046031;28;20076;-62
2022/03/09 08:57:03;;;;;;;12.30;6.35;;;7.20;46.40;;;;;;5046779;28;20025;-63
2022/03/09 08:59:29;;;;;;;14.88;8.07;;;7.30;46.10;;;;;;5045402;28;20022;-63
2022/03/09 09:01:54;;;;;;;10.88;6.88;;;7.40;45.90;;;;;;5046798;28;20036;-63
2022/03/09 09:04:20;;;;;;;13.15;7.30;;;7.60;45.60;;;;;;5045553;28;20081;-64
2022/03/09 09:06:46;;;;;;;11.75;6.97;;;7.70;45.30;;;;;;5028127;28;20100;-63
2022/03/09 09:09:14;;;;;;;11.23;7.30;;;7.90;45.10;;;;;;5045032;28;20037;-63
2022/03/09 09:11:40;;;;;;;13.07;7.07;;;8.00;44.80;;;;;;5046551;28;20472;-62
2022/03/09 09:14:06;;;;;;;13.63;7.20;;;8.10;44.80;;;;;;5044763;28;20046;-63
2022/03/09 09:16:32;;;;;;;11.98;7.50;;;8.20;44.50;;;;;;5046150;28;20038;-63
2022/03/09 09:18:57;;;;;;;10.65;6.97;;;8.30;44.30;;;;;;5027300;28;20029;-63
2022/03/09 09:21:23;;;;;;;11.40;7.00;;;8.40;44.20;;;;;;5046243;28;20029;-63
2022/03/09 09:23:49;;;;;;;11.38;7.43;;;8.50;44.00;;;;;;5045101;28;20524;-65
2022/03/09 09:26:15;;;;;;;15.13;8.18;;;8.70;44.00;;;;;;5045963;28;20037;-63
2022/03/09 09:28:41;;;;;;;13.50;8.23;;;8.80;43.50;;;;;;5026814;28;20030;-62
2022/03/09 09:31:08;;;;;;;20.35;8.20;;;8.80;43.50;;;;;;5045781;28;20034;-63
2022/03/09 09:33:34;;;;;;;14.60;8.10;;;8.90;43.50;;;;;;5044637;28;20028;-65
2022/03/09 09:35:59;;;;;;;20.02;7.65;;;9.00;43.30;;;;;;5028153;28;20093;-64
2022/03/09 09:38:27;;;;;;;13.93;8.07;;;9.10;43.00;;;;;;5045352;28;20040;-64
2022/03/09 09:40:55;;;;;;;19.27;9.10;;;9.20;43.00;;;;;;5045803;28;20021;-64
2022/03/09 09:43:22;;;;;;;15.40;8.00;;;9.30;42.90;;;;;;5044308;28;20021;-64
2022/03/09 09:45:48;;;;;;;15.75;9.05;;;9.40;42.80;;;;;;5045040;28;20372;-64
2022/03/09 09:48:14;;;;;;;13.98;8.75;;;9.50;42.50;;;;;;5044982;28;20061;-64
2022/03/09 09:50:42;;;;;;;15.30;8.88;;;9.50;42.40;;;;;;5045696;28;20024;-64
2022/03/09 09:53:12;;;;;;;15.77;9.10;;;9.70;42.20;;;;;;5026570;28;20068;-64
2022/03/09 09:55:39;;;;;;;24.77;9.52;;;9.80;41.80;;;;;;5045665;28;20041;-65
2022/03/09 09:58:05;;;;;;;14.02;8.82;;;9.80;41.90;;;;;;5044685;28;20049;-64
2022/03/09 10:00:32;;;;;;;15.93;8.75;;;10.00;42.00;;;;;;5028028;28;20104;-65
2022/03/09 10:02:58;;;;;;;16.65;10.10;;;10.00;41.70;;;;;;5044393;28;20057;-65
2022/03/09 10:05:25;;;;;;;18.33;8.95;;;10.10;41.40;;;;;;5044032;28;20454;-64
2022/03/09 10:08:03;;;;;;;15.35;9.57;;;10.20;41.30;;;;;;5045296;28;20035;-64
2022/03/09 10:10:30;;;;;;;12.57;8.68;;;10.30;40.60;;;;;;5025414;28;20030;-63
2022/03/09 10:13:13;;;;;;;17.63;9.85;;;10.40;41.00;;;;;;5044026;28;20062;-63
2022/03/09 10:15:39;;;;;;;15.73;9.88;;;10.50;40.30;;;;;;5045388;28;20030;-64
2022/03/09 10:18:37;;;;;;;14.38;9.45;;;10.60;40.70;;;;;;5043749;28;20021;-65
2022/03/09 10:21:09;;;;;;;16.50;9.15;;;10.70;40.20;;;;;;5044905;28;20029;-63
2022/03/09 10:23:52;;;;;;;15.27;9.98;;;10.90;40.30;;;;;;5044053;28;20068;-63
2022/03/09 10:26:18;;;;;;;13.50;9.18;;;11.00;40.20;;;;;;5025663;28;20026;-63
2022/03/09 10:29:07;;;;;;;22.23;9.95;;;11.00;40.20;;;;;;5020597;28;20026;-63
2022/03/09 10:31:41;;;;;;;25.15;13.60;;;11.10;39.60;;;;;;5007746;28;20030;-63
2022/03/09 10:34:13;;;;;;;19.17;10.73;;;11.20;39.70;;;;;;5007437;28;20026;-63
2022/03/09 10:37:04;;;;;;;17.48;10.80;;;11.30;39.70;;;;;;5043120;28;20033;-65
2022/03/09 10:39:37;;;;;;;18.75;10.90;;;11.40;39.70;;;;;;5007320;28;20033;-64
2022/03/09 10:42:24;;;;;;;19.05;12.48;;;11.50;39.60;;;;;;5030665;28;20034;-65
2022/03/09 10:44:51;;;;;;;20.48;12.40;;;11.60;39.60;;;;;;5024845;28;20080;-65
2022/03/09 10:47:48;;;;;;;29.00;11.90;;;11.70;39.30;;;;;;5042774;28;20032;-64
2022/03/09 10:50:18;;;;;;;19.23;11.88;;;11.80;38.40;;;;;;5025483;28;20033;-63
2022/03/09 10:52:51;;;;;;;25.90;11.20;;;11.90;38.80;;;;;;5043061;28;20044;-64
2022/03/09 10:55:31;;;;;;;17.25;10.65;;;12.00;38.50;;;;;;5047175;28;20032;-64
2022/03/09 10:58:09;;;;;;;21.02;11.90;;;12.10;38.10;;;;;;5045669;28;20021;-65
2022/03/09 11:00:43;;;;;;;17.50;11.40;;;12.20;37.50;;;;;;5041868;28;20132;-65
2022/03/09 11:03:16;;;;;;;16.48;11.10;;;12.30;37.80;;;;;;5041440;28;20025;-64
2022/03/09 11:05:50;;;;;;;18.75;12.23;;;12.40;37.60;;;;;;5043068;28;20108;-65
2022/03/09 11:08:17;;;;;;;23.23;12.02;;;12.50;37.20;;;;;;5043893;28;20032;-65
2022/03/09 11:10:46;;;;;;;18.48;12.38;;;12.50;37.50;;;;;;5043357;28;20138;-65
2022/03/09 11:13:12;;;;;;;19.13;11.73;;;12.60;37.00;;;;;;5043636;28;20073;-65
2022/03/09 11:15:39;;;;;;;15.95;11.10;;;12.70;37.10;;;;;;5043419;28;20046;-65
2022/03/09 11:18:06;;;;;;;19.13;11.80;;;12.80;37.00;;;;;;5044213;28;20072;-65
2022/03/09 11:20:32;;;;;;;18.65;11.85;;;12.90;36.90;;;;;;5042910;28;20038;-65
2022/03/09 11:22:58;;;;;;;18.23;11.70;;;13.00;36.50;;;;;;5044555;28;20475;-65
2022/03/09 11:25:24;;;;;;;17.88;12.02;;;13.00;36.20;;;;;;5042982;28;20056;-64
2022/03/09 11:27:53;;;;;;;19.58;11.68;;;13.00;36.10;;;;;;5044479;28;20029;-63
2022/03/09 11:30:25;;;;;;;17.00;11.77;;;13.10;36.40;;;;;;5044267;28;20036;-65
2022/03/09 11:32:51;;;;;;;18.45;12.20;;;13.20;36.20;;;;;;5033685;28;20467;-64
2022/03/09 11:35:39;;;;;;;19.48;12.15;;;13.30;36.30;;;;;;5044314;28;20040;-64
2022/03/09 11:38:34;;;;;;;17.58;11.05;;;13.30;34.90;;;;;;5043261;28;20084;-65
2022/03/09 11:41:16;;;;;;;20.23;11.80;;;13.50;35.20;;;;;;5041932;28;20025;-65
2022/03/09 11:43:41;;;;;;;18.52;10.93;;;13.50;35.00;;;;;;5044043;28;20036;-65
2022/03/09 11:46:07;;;;;;;21.00;13.23;;;13.60;35.90;;;;;;5042482;28;20026;-65
2022/03/09 11:48:53;;;;;;;18.58;12.38;;;13.70;35.60;;;;;;5043893;28;20044;-64
2022/03/09 11:51:21;;;;;;;17.98;11.02;;;13.80;34.60;;;;;;5034191;28;20022;-65
2022/03/09 11:53:59;;;;;;;17.58;11.63;;;13.90;35.40;;;;;;5046435;28;20083;-64
2022/03/09 11:56:33;;;;;;;17.48;11.30;;;14.00;35.30;;;;;;5041884;28;20055;-64
2022/03/09 11:59:24;;;;;;;18.00;11.77;;;14.10;35.50;;;;;;5042432;28;20085;-64
2022/03/09 12:01:58;;;;;;;17.48;11.00;;;14.20;34.80;;;;;;5024452;28;20495;-65
2022/03/09 12:04:39;;;;;;;;;;;14.30;35.20;;;;;;5048206;28;20030;-64
2022/03/09 12:07:05;;;;;;;23.45;11.90;;;14.40;35.70;;;;;;5046325;28;19913;-65
2022/03/09 12:09:52;;;;;;;17.67;12.55;;;14.50;35.20;;;;;;5047512;28;20095;-65
2022/03/09 12:12:17;;;;;;;22.33;13.70;;;14.60;33.60;;;;;;5046528;28;20056;-65
2022/03/09 12:15:06;;;;;;;18.42;13.13;;;14.70;34.20;;;;;;5047566;28;20033;-65
2022/03/09 12:17:38;;;;;;;18.27;12.07;;;14.70;33.50;;;;;;5044828;28;20491;-65
2022/03/09 12:20:27;;;;;;;21.75;12.95;;;14.80;34.00;;;;;;5047346;28;20032;-66
2022/03/09 12:22:56;;;;;;;19.30;12.45;;;14.80;32.60;;;;;;5027968;28;20113;-66
2022/03/09 12:25:54;;;;;;;23.08;13.75;;;14.90;33.20;;;;;;5045968;28;20029;-66
2022/03/09 12:28:25;;;;;;;21.55;13.55;;;15.00;32.40;;;;;;4970303;28;20561;-65
2022/03/09 12:30:59;;;;;;;22.10;13.40;;;15.10;33.50;;;;;;4965382;29;20099;-65
2022/03/09 12:33:30;;;;;;;23.60;14.77;;;15.20;33.50;;;;;;4985482;28;20062;-66
2022/03/09 12:36:06;;;;;;;25.58;15.55;;;15.30;33.00;;;;;;4965248;28;20042;-65
2022/03/09 12:38:38;;;;;;;26.50;15.32;;;15.30;31.50;;;;;;4965559;29;20044;-66
2022/03/09 12:41:04;;;;;;;24.30;14.10;;;15.30;32.20;;;;;;4978967;28;20119;-65